Time;durP1;ratioP1;P1;durP2;ratioP2;P2;SDS_P1;SDS_P2;PMS_P1;PMS_P2;Temp;Humidity;BMP_temperature;BMP_pressure;BME280_temperature;BME280_humidity;BME280_pressure;Samples;Min_cycle;Max_cycle;Signal;HPM_P1;HPM_P2
2024/03/11 00:01:29;;;;;;;;;;;;;;;;;;5139109;28;19911;-29
2024/03/11 00:03:54;;;;;;;;;;;;;;;;;;5139169;28;20345;-28
2024/03/11 00:06:20;;;;;;;;;;;;;;;;;;5138510;28;19919;-29
2024/03/11 00:08:47;;;;;;;;;;;;;;;;;;5139108;28;19903;-29
2024/03/11 00:11:13;;;;;;;;;;;;;;;;;;5138870;28;19908;-29
2024/03/11 00:13:39;;;;;;;;;;;;;;;;;;5139036;28;20376;-30
2024/03/11 00:16:06;;;;;;;;;;;;;;;;;;5138804;28;20370;-28
2024/03/11 00:18:32;;;;;;;;;;;;;;;;;;5138747;28;20594;-28
2024/03/11 00:20:59;;;;;;;;;;;;;;;;;;5139023;28;19911;-28
2024/03/11 00:23:25;;;;;;;;;;;;;;;;;;5138652;28;19912;-30
2024/03/11 00:25:51;;;;;;;;;;;;;;;;;;5138726;28;19908;-30
2024/03/11 00:28:17;;;;;;;;;;;;;;;;;;5139135;28;19974;-28
2024/03/11 00:30:44;;;;;;;;;;;;;;;;;;5138882;28;19914;-28
2024/03/11 00:33:10;;;;;;;;;;;;;;;;;;5139168;28;19907;-28
2024/03/11 00:35:36;;;;;;;;;;;;;;;;;;5138672;28;19914;-29
2024/03/11 00:38:02;;;;;;;;;;;;;;;;;;5138540;28;19918;-29
2024/03/11 00:40:29;;;;;;;;;;;;;;;;;;5119964;28;19907;-28
2024/03/11 00:42:55;;;;;;;;;;;;;;;;;;5140844;27;19904;-28
2024/03/11 00:45:23;;;;;;;;;;;;;;;;;;5143027;27;20359;-29
2024/03/11 00:47:49;;;;;;;;;;;;;;;;;;5142507;27;19904;-28
2024/03/11 00:50:15;;;;;;;;;;;;;;;;;;5142831;27;19913;-28
2024/03/11 00:52:41;;;;;;;;;;;;;;;;;;5142320;27;19903;-29
2024/03/11 00:55:07;;;;;;;;;;;;;;;;;;5142499;27;19914;-28
2024/03/11 00:57:35;;;;;;;;;;;;;;;;;;5142184;27;19911;-28
2024/03/11 01:00:02;;;;;;;;;;;;;;;;;;5142239;27;19907;-29
2024/03/11 01:02:28;;;;;;;;;;;;;;;;;;5141971;27;19907;-28
2024/03/11 01:04:54;;;;;;;;;;;;;;;;;;5142119;27;19927;-31
2024/03/11 01:07:20;;;;;;;;;;;;;;;;;;5142270;27;19913;-29
2024/03/11 01:09:46;;;;;;;;;;;;;;;;;;5141849;27;19942;-28
2024/03/11 01:12:13;;;;;;;;;;;;;;;;;;5122764;27;21214;-29
2024/03/11 01:14:39;;;;;;;;;;;;;;;;;;5142243;27;19914;-29
2024/03/11 01:17:06;;;;;;;;;;;;;;;;;;5141799;27;20370;-29
2024/03/11 01:19:32;;;;;;;;;;;;;;;;;;5141634;27;19907;-28
2024/03/11 01:21:59;;;;;;;;;;;;;;;;;;5142017;27;20009;-28
2024/03/11 01:24:27;;;;;;;;;;;;;;;;;;5141567;27;19918;-30
2024/03/11 01:26:57;;;;;;;;;;;;;;;;;;5141820;27;19952;-30
2024/03/11 01:29:22;;;;;;;;;;;;;;;;;;5141489;27;19911;-28
2024/03/11 01:31:48;;;;;;;;;;;;;;;;;;5141807;27;19952;-28
2024/03/11 01:34:14;;;;;;;;;;;;;;;;;;5141712;27;20278;-28
2024/03/11 01:36:40;;;;;;;;;;;;;;;;;;5141449;27;19911;-28
2024/03/11 01:39:09;;;;;;;;;;;;;;;;;;5141664;27;19930;-29
2024/03/11 01:41:36;;;;;;;;;;;;;;;;;;5141574;27;19908;-30
2024/03/11 01:44:02;;;;;;;;;;;;;;;;;;5141451;27;19907;-28
2024/03/11 01:46:28;;;;;;;;;;;;;;;;;;5141358;27;20354;-29
2024/03/11 01:48:53;;;;;;;;;;;;;;;;;;5141781;27;20006;-28
2024/03/11 01:51:21;;;;;;;;;;;;;;;;;;5141487;27;19972;-29
2024/03/11 01:53:47;;;;;;;;;;;;;;;;;;5141053;27;19945;-28
2024/03/11 01:56:13;;;;;;;;;;;;;;;;;;5141036;27;20262;-28
2024/03/11 01:58:40;;;;;;;;;;;;;;;;;;5141374;27;19907;-28
2024/03/11 02:01:07;;;;;;;;;;;;;;;;;;5141219;27;19932;-28
2024/03/11 02:03:33;;;;;;;;;;;;;;;;;;5141211;27;19911;-29
2024/03/11 02:05:59;;;;;;;;;;;;;;;;;;5140930;27;19920;-28
2024/03/11 02:08:25;;;;;;;;;;;;;;;;;;5141112;27;19908;-28
2024/03/11 02:10:51;;;;;;;;;;;;;;;;;;5141339;27;19960;-31
2024/03/11 02:13:19;;;;;;;;;;;;;;;;;;5141012;27;19903;-28
2024/03/11 02:15:47;;;;;;;;;;;;;;;;;;5140652;27;20293;-28
2024/03/11 02:18:13;;;;;;;;;;;;;;;;;;5140597;27;19911;-28
2024/03/11 02:20:40;;;;;;;;;;;;;;;;;;5140936;27;19915;-29
2024/03/11 02:23:06;;;;;;;;;;;;;;;;;;5140588;27;20333;-29
2024/03/11 02:25:32;;;;;;;;;;;;;;;;;;5140506;27;19958;-28
2024/03/11 02:27:58;;;;;;;;;;;;;;;;;;5140938;27;20231;-28
2024/03/11 02:30:24;;;;;;;;;;;;;;;;;;5140977;27;19915;-28
2024/03/11 02:32:50;;;;;;;;;;;;;;;;;;5140444;27;19911;-31
2024/03/11 02:35:16;;;;;;;;;;;;;;;;;;5140420;27;20270;-29
2024/03/11 02:37:43;;;;;;;;;;;;;;;;;;5140691;27;19912;-28
2024/03/11 02:40:09;;;;;;;;;;;;;;;;;;5140471;27;19911;-31
2024/03/11 02:42:35;;;;;;;;;;;;;;;;;;5140426;27;19918;-28
2024/03/11 02:45:02;;;;;;;;;;;;;;;;;;5140496;27;19908;-29
2024/03/11 02:47:28;;;;;;;;;;;;;;;;;;5140050;27;20365;-28
2024/03/11 02:49:54;;;;;;;;;;;;;;;;;;5140157;27;19907;-29
2024/03/11 02:52:23;;;;;;;;;;;;;;;;;;5139949;27;19914;-28
2024/03/11 02:54:50;;;;;;;;;;;;;;;;;;5140189;27;19911;-31
2024/03/11 02:57:17;;;;;;;;;;;;;;;;;;5140155;27;20285;-28
2024/03/11 02:59:43;;;;;;;;;;;;;;;;;;5139899;27;19947;-28
2024/03/11 03:02:09;;;;;;;;;;;;;;;;;;5139956;27;19911;-28
2024/03/11 03:04:35;;;;;;;;;;;;;;;;;;5139589;27;19920;-28
2024/03/11 03:07:01;;;;;;;;;;;;;;;;;;5139646;27;20006;-28
2024/03/11 03:09:27;;;;;;;;;;;;;;;;;;5139898;27;19914;-28
2024/03/11 03:11:54;;;;;;;;;;;;;;;;;;5139878;27;19914;-30
2024/03/11 03:14:21;;;;;;;;;;;;;;;;;;5139738;27;19935;-29
2024/03/11 03:16:47;;;;;;;;;;;;;;;;;;5139938;27;19932;-28
2024/03/11 03:19:15;;;;;;;;;;;;;;;;;;5121202;27;20363;-28
2024/03/11 03:21:41;;;;;;;;;;;;;;;;;;5121062;27;19910;-32
2024/03/11 03:24:06;;;;;;;;;;;;;;;;;;5139723;27;19907;-29
2024/03/11 03:26:32;;;;;;;;;;;;;;;;;;5139391;27;20263;-28
2024/03/11 03:28:58;;;;;;;;;;;;;;;;;;5139856;27;19914;-32
2024/03/11 03:31:27;;;;;;;;;;;;;;;;;;5139267;27;19986;-28
2024/03/11 03:33:53;;;;;;;;;;;;;;;;;;5139329;27;19908;-29
2024/03/11 03:36:19;;;;;;;;;;;;;;;;;;5139129;27;20352;-32
2024/03/11 03:38:45;;;;;;;;;;;;;;;;;;5139417;27;20308;-28
2024/03/11 03:41:11;;;;;;;;;;;;;;;;;;5139109;27;19994;-29
2024/03/11 03:43:37;;;;;;;;;;;;;;;;;;5139449;27;19907;-30
2024/03/11 03:46:03;;;;;;;;;;;;;;;;;;5139335;27;19904;-28
2024/03/11 03:48:29;;;;;;;;;;;;;;;;;;5139538;27;19955;-28
2024/03/11 03:50:55;;;;;;;;;;;;;;;;;;5139085;27;19907;-28
2024/03/11 03:53:21;;;;;;;;;;;;;;;;;;5139104;27;19911;-29
2024/03/11 03:55:49;;;;;;;;;;;;;;;;;;5138919;27;19973;-28
2024/03/11 03:58:15;;;;;;;;;;;;;;;;;;5138975;27;19915;-30
2024/03/11 04:00:41;;;;;;;;;;;;;;;;;;5121208;28;19972;-29
2024/03/11 04:03:07;;;;;;;;;;;;;;;;;;5139141;28;19908;-29
2024/03/11 04:05:33;;;;;;;;;;;;;;;;;;5138797;28;19925;-29
2024/03/11 04:07:59;;;;;;;;;;;;;;;;;;5139308;28;19908;-29
2024/03/11 04:10:26;;;;;;;;;;;;;;;;;;5139099;28;19911;-28
2024/03/11 04:12:52;;;;;;;;;;;;;;;;;;5139283;28;19908;-29
2024/03/11 04:15:19;;;;;;;;;;;;;;;;;;5138832;28;19973;-30
2024/03/11 04:17:45;;;;;;;;;;;;;;;;;;5141996;27;19912;-28
2024/03/11 04:20:11;;;;;;;;;;;;;;;;;;5143314;27;19907;-32
2024/03/11 04:22:37;;;;;;;;;;;;;;;;;;5143004;27;20384;-31
2024/03/11 04:25:03;;;;;;;;;;;;;;;;;;5143347;27;19914;-28
2024/03/11 04:27:29;;;;;;;;;;;;;;;;;;5143088;27;19915;-28
2024/03/11 04:29:55;;;;;;;;;;;;;;;;;;5142877;27;19911;-29
2024/03/11 04:32:24;;;;;;;;;;;;;;;;;;5142993;27;20333;-28
2024/03/11 04:34:50;;;;;;;;;;;;;;;;;;5142804;27;19908;-28
2024/03/11 04:37:16;;;;;;;;;;;;;;;;;;5142550;27;19915;-28
2024/03/11 04:39:43;;;;;;;;;;;;;;;;;;5142767;27;20002;-28
2024/03/11 04:42:10;;;;;;;;;;;;;;;;;;5142772;27;19911;-28
2024/03/11 04:44:36;;;;;;;;;;;;;;;;;;5142395;27;19930;-28
2024/03/11 04:47:03;;;;;;;;;;;;;;;;;;5142537;27;19904;-28
2024/03/11 04:49:29;;;;;;;;;;;;;;;;;;5142546;27;19912;-29
2024/03/11 04:51:55;;;;;;;;;;;;;;;;;;5142597;27;19908;-29
2024/03/11 04:54:21;;;;;;;;;;;;;;;;;;5142385;27;19918;-28
2024/03/11 04:56:47;;;;;;;;;;;;;;;;;;5142454;27;19911;-28
2024/03/11 04:59:13;;;;;;;;;;;;;;;;;;5142346;27;19914;-30
2024/03/11 05:01:39;;;;;;;;;;;;;;;;;;5142329;27;19908;-28
2024/03/11 05:04:05;;;;;;;;;;;;;;;;;;5142130;27;19917;-28
2024/03/11 05:06:31;;;;;;;;;;;;;;;;;;5142367;27;19915;-28
2024/03/11 05:08:57;;;;;;;;;;;;;;;;;;5142110;27;19908;-28
2024/03/11 05:11:23;;;;;;;;;;;;;;;;;;5142383;27;19907;-29
2024/03/11 05:13:50;;;;;;;;;;;;;;;;;;5131936;27;19969;-30
2024/03/11 05:16:16;;;;;;;;;;;;;;;;;;5121091;28;20327;-29
2024/03/11 05:18:43;;;;;;;;;;;;;;;;;;5121287;28;19915;-28
2024/03/11 05:21:09;;;;;;;;;;;;;;;;;;5121125;28;19915;-28
2024/03/11 05:23:37;;;;;;;;;;;;;;;;;;5121544;28;19912;-30
2024/03/11 05:26:02;;;;;;;;;;;;;;;;;;5121025;28;19915;-29
2024/03/11 05:28:29;;;;;;;;;;;;;;;;;;5120502;28;19908;-29
2024/03/11 05:30:54;;;;;;;;;;;;;;;;;;5121132;28;19953;-28
2024/03/11 05:33:20;;;;;;;;;;;;;;;;;;5120813;28;19911;-28
2024/03/11 05:35:46;;;;;;;;;;;;;;;;;;5119590;28;19999;-31
2024/03/11 05:38:12;;;;;;;;;;;;;;;;;;5119666;28;19912;-28
2024/03/11 05:40:38;;;;;;;;;;;;;;;;;;5119723;28;19911;-29
2024/03/11 05:43:05;;;;;;;;;;;;;;;;;;5119089;28;20007;-28
2024/03/11 05:45:31;;;;;;;;;;;;;;;;;;5120120;28;19958;-28
2024/03/11 05:47:57;;;;;;;;;;;;;;;;;;5121018;28;19915;-29
2024/03/11 05:50:24;;;;;;;;;;;;;;;;;;5120675;28;19908;-30
2024/03/11 05:52:50;;;;;;;;;;;;;;;;;;5120445;28;19908;-28
2024/03/11 05:55:16;;;;;;;;;;;;;;;;;;5120693;28;20263;-31
2024/03/11 05:57:43;;;;;;;;;;;;;;;;;;5120495;28;19912;-29
2024/03/11 06:00:18;;;;;;;;;;;;;;;;;;5120989;28;19914;-28
2024/03/11 06:02:44;;;;;;;;;;;;;;;;;;5120625;28;19912;-29
2024/03/11 06:05:10;;;;;;;;;;;;;;;;;;5120187;28;19919;-29
2024/03/11 06:07:37;;;;;;;;;;;;;;;;;;5120592;28;20362;-28
2024/03/11 06:10:03;;;;;;;;;;;;;;;;;;5120572;28;19995;-28
2024/03/11 06:12:29;;;;;;;;;;;;;;;;;;5120659;28;19912;-28
2024/03/11 06:14:54;;;;;;;;;;;;;;;;;;5120381;28;19930;-29
2024/03/11 06:17:20;;;;;;;;;;;;;;;;;;5120023;28;20362;-30
2024/03/11 06:19:46;;;;;;;;;;;;;;;;;;5120707;28;19908;-29
2024/03/11 06:22:15;;;;;;;;;;;;;;;;;;5120090;28;19908;-30
2024/03/11 06:24:41;;;;;;;;;;;;;;;;;;5119823;28;19915;-28
2024/03/11 06:27:07;;;;;;;;;;;;;;;;;;5119950;28;20002;-29
2024/03/11 06:29:33;;;;;;;;;;;;;;;;;;5119726;28;19949;-29
2024/03/11 06:31:59;;;;;;;;;;;;;;;;;;5120034;28;20044;-28
2024/03/11 06:34:27;;;;;;;;;;;;;;;;;;5120014;28;19949;-28
2024/03/11 06:36:53;;;;;;;;;;;;;;;;;;5119648;28;20371;-28
2024/03/11 06:39:19;;;;;;;;;;;;;;;;;;5119774;28;20013;-31
2024/03/11 06:41:45;;;;;;;;;;;;;;;;;;5118882;28;20324;-29
2024/03/11 06:44:11;;;;;;;;;;;;;;;;;;5101248;28;19908;-28
2024/03/11 06:46:37;;;;;;;;;;;;;;;;;;5120295;28;19982;-28
2024/03/11 06:49:03;;;;;;;;;;;;;;;;;;5119746;28;20010;-28
2024/03/11 06:51:30;;;;;;;;;;;;;;;;;;5119669;28;19926;-28
2024/03/11 06:53:56;;;;;;;;;;;;;;;;;;5119243;28;19969;-28
2024/03/11 06:56:22;;;;;;;;;;;;;;;;;;5119506;28;19915;-29
2024/03/11 06:58:50;;;;;;;;;;;;;;;;;;5101024;28;19907;-29
2024/03/11 07:01:16;;;;;;;;;;;;;;;;;;5119506;28;19915;-28
2024/03/11 07:03:42;;;;;;;;;;;;;;;;;;5119457;28;20376;-28
2024/03/11 07:06:08;;;;;;;;;;;;;;;;;;5119128;28;19927;-28
2024/03/11 07:08:34;;;;;;;;;;;;;;;;;;5119015;28;19903;-29
2024/03/11 07:11:01;;;;;;;;;;;;;;;;;;5119294;28;19956;-28
2024/03/11 07:13:35;;;;;;;;;;;;;;;;;;5119285;28;19911;-31
2024/03/11 07:16:05;;;;;;;;;;;;;;;;;;5119090;28;19914;-28
2024/03/11 07:18:31;;;;;;;;;;;;;;;;;;5118930;28;19911;-28
2024/03/11 07:21:04;;;;;;;;;;;;;;;;;;5119010;28;19907;-28
2024/03/11 07:23:33;;;;;;;;;;;;;;;;;;5118891;28;19908;-31
2024/03/11 07:25:59;;;;;;;;;;;;;;;;;;5119021;28;19908;-30
2024/03/11 07:28:26;;;;;;;;;;;;;;;;;;5118842;28;19918;-28
2024/03/11 07:30:52;;;;;;;;;;;;;;;;;;5118933;28;19915;-28
2024/03/11 07:33:20;;;;;;;;;;;;;;;;;;5118751;28;19907;-28
2024/03/11 07:35:47;;;;;;;;;;;;;;;;;;5118442;28;19912;-28
2024/03/11 07:38:14;;;;;;;;;;;;;;;;;;5118158;28;19918;-28
2024/03/11 07:40:40;;;;;;;;;;;;;;;;;;5118550;28;19908;-31
2024/03/11 07:43:10;;;;;;;;;;;;;;;;;;5118549;28;19918;-28
2024/03/11 07:45:37;;;;;;;;;;;;;;;;;;5118571;28;19918;-28
2024/03/11 07:48:03;;;;;;;;;;;;;;;;;;5118887;28;19908;-28
2024/03/11 07:50:29;;;;;;;;;;;;;;;;;;5118861;28;20002;-28
2024/03/11 07:52:56;;;;;;;;;;;;;;;;;;5118064;28;19908;-28
2024/03/11 07:55:24;;;;;;;;;;;;;;;;;;5118138;28;20362;-31
2024/03/11 07:57:53;;;;;;;;;;;;;;;;;;5118249;28;20287;-28
2024/03/11 08:00:20;;;;;;;;;;;;;;;;;;5118552;28;19951;-32
2024/03/11 08:02:47;;;;;;;;;;;;;;;;;;5118349;28;19908;-28
2024/03/11 08:05:13;;;;;;;;;;;;;;;;;;5117964;28;19969;-28
2024/03/11 08:07:39;;;;;;;;;;;;;;;;;;5118411;28;19911;-28
2024/03/11 08:10:06;;;;;;;;;;;;;;;;;;5118425;28;19938;-30
2024/03/11 08:12:35;;;;;;;;;;;;;;;;;;5117972;28;19925;-29
2024/03/11 08:15:04;;;;;;;;;;;;;;;;;;5118094;28;19930;-29
2024/03/11 08:17:30;;;;;;;;;;;;;;;;;;5118322;28;19912;-28
2024/03/11 08:19:56;;;;;;;;;;;;;;;;;;5118420;28;19911;-29
2024/03/11 08:22:22;;;;;;;;;;;;;;;;;;5118369;28;19911;-28
2024/03/11 08:24:48;;;;;;;;;;;;;;;;;;5118161;28;20305;-28
2024/03/11 08:27:15;;;;;;;;;;;;;;;;;;5118513;28;19908;-29
2024/03/11 08:29:41;;;;;;;;;;;;;;;;;;5118260;28;19914;-30
2024/03/11 08:32:09;;;;;;;;;;;;;;;;;;5118304;28;20010;-28
2024/03/11 08:34:35;;;;;;;;;;;;;;;;;;5118146;28;20275;-29
2024/03/11 08:37:04;;;;;;;;;;;;;;;;;;5117977;28;19912;-30
2024/03/11 08:39:30;;;;;;;;;;;;;;;;;;5118163;28;19914;-29
2024/03/11 08:41:57;;;;;;;;;;;;;;;;;;5118230;28;19912;-29
2024/03/11 08:44:23;;;;;;;;;;;;;;;;;;5117845;28;19914;-31
2024/03/11 08:46:51;;;;;;;;;;;;;;;;;;5118011;28;19908;-29
2024/03/11 08:49:17;;;;;;;;;;;;;;;;;;5118045;28;19930;-28
2024/03/11 08:51:42;;;;;;;;;;;;;;;;;;5118231;28;20366;-31
2024/03/11 08:54:09;;;;;;;;;;;;;;;;;;5117778;28;19915;-28
2024/03/11 08:56:36;;;;;;;;;;;;;;;;;;5117563;28;19918;-29
2024/03/11 08:59:10;;;;;;;;;;;;;;;;;;5118223;28;20358;-28
2024/03/11 09:01:36;;;;;;;;;;;;;;;;;;5117837;28;19915;-28
2024/03/11 09:04:02;;;;;;;;;;;;;;;;;;5119922;28;19919;-29
2024/03/11 09:06:30;;;;;;;;;;;;;;;;;;5121834;28;19920;-31
2024/03/11 09:08:56;;;;;;;;;;;;;;;;;;5121467;28;19908;-29
2024/03/11 09:11:22;;;;;;;;;;;;;;;;;;5121376;28;19915;-28
2024/03/11 09:13:49;;;;;;;;;;;;;;;;;;5121433;28;20274;-28
2024/03/11 09:16:15;;;;;;;;;;;;;;;;;;5121346;28;19915;-29
2024/03/11 09:18:41;;;;;;;;;;;;;;;;;;5121664;28;20282;-28
2024/03/11 09:21:08;;;;;;;;;;;;;;;;;;5121716;28;20281;-29
2024/03/11 09:23:36;;;;;;;;;;;;;;;;;;5121372;28;19914;-28
2024/03/11 09:26:04;;;;;;;;;;;;;;;;;;5120812;28;20002;-29
2024/03/11 09:28:30;;;;;;;;;;;;;;;;;;5121053;28;19930;-28
2024/03/11 09:30:56;;;;;;;;;;;;;;;;;;5121215;28;19953;-29
2024/03/11 09:33:23;;;;;;;;;;;;;;;;;;5120873;28;19908;-29
2024/03/11 09:35:50;;;;;;;;;;;;;;;;;;5102670;28;19907;-28
2024/03/11 09:38:16;;;;;;;;;;;;;;;;;;5120569;28;19916;-31
2024/03/11 09:40:42;;;;;;;;;;;;;;;;;;5120832;28;19907;-28
2024/03/11 09:43:11;;;;;;;;;;;;;;;;;;5120559;28;19958;-28
2024/03/11 09:45:40;;;;;;;;;;;;;;;;;;5121015;28;19915;-29
2024/03/11 09:48:08;;;;;;;;;;;;;;;;;;5120576;28;19907;-28
2024/03/11 09:50:37;;;;;;;;;;;;;;;;;;5120852;28;19915;-28
2024/03/11 09:53:18;;;;;;;;;;;;;;;;;;5120840;28;19915;-29
2024/03/11 09:55:44;;;;;;;;;;;;;;;;;;5120528;28;19911;-29
2024/03/11 09:58:10;;;;;;;;;;;;;;;;;;5120619;28;19912;-29
2024/03/11 10:00:48;;;;;;;;;;;;;;;;;;5120231;28;19919;-31
2024/03/11 10:03:13;;;;;;;;;;;;;;;;;;5120855;28;20278;-29
2024/03/11 10:05:39;;;;;;;;;;;;;;;;;;5120204;28;20002;-30
2024/03/11 10:08:05;;;;;;;;;;;;;;;;;;5120701;28;20294;-28
2024/03/11 10:10:32;;;;;;;;;;;;;;;;;;5120368;28;19951;-31
2024/03/11 10:13:00;;;;;;;;;;;;;;;;;;5120214;28;19904;-28
2024/03/11 10:15:29;;;;;;;;;;;;;;;;;;5120209;28;19912;-29
2024/03/11 10:17:56;;;;;;;;;;;;;;;;;;5120099;28;19912;-28
2024/03/11 10:20:22;;;;;;;;;;;;;;;;;;5119820;28;19912;-29
2024/03/11 10:22:48;;;;;;;;;;;;;;;;;;5120660;28;19904;-29
2024/03/11 10:25:16;;;;;;;;;;;;;;;;;;5120058;28;19915;-29
2024/03/11 10:27:43;;;;;;;;;;;;;;;;;;5120179;28;19904;-30
2024/03/11 10:30:11;;;;;;;;;;;;;;;;;;5119686;28;19908;-28
2024/03/11 10:32:38;;;;;;;;;;;;;;;;;;5119788;28;20358;-28
2024/03/11 10:35:04;;;;;;;;;;;;;;;;;;5119884;28;19908;-28
2024/03/11 10:37:30;;;;;;;;;;;;;;;;;;5120128;28;19912;-29
2024/03/11 10:40:04;;;;;;;;;;;;;;;;;;5119627;28;19912;-29
2024/03/11 10:42:32;;;;;;;;;;;;;;;;;;5119549;28;20283;-30
2024/03/11 10:44:58;;;;;;;;;;;;;;;;;;5119359;28;20266;-29
2024/03/11 10:47:24;;;;;;;;;;;;;;;;;;5119491;28;20007;-29
2024/03/11 10:49:50;;;;;;;;;;;;;;;;;;5119442;28;19911;-29
2024/03/11 10:52:16;;;;;;;;;;;;;;;;;;5119432;28;19987;-30
2024/03/11 10:54:47;;;;;;;;;;;;;;;;;;5119237;28;19912;-29
2024/03/11 10:57:14;;;;;;;;;;;;;;;;;;5119671;28;20411;-28
2024/03/11 10:59:41;;;;;;;;;;;;;;;;;;5119553;28;19908;-29
2024/03/11 11:02:07;;;;;;;;;;;;;;;;;;5119444;28;19929;-29
2024/03/11 11:04:33;;;;;;;;;;;;;;;;;;5119331;28;20371;-28
2024/03/11 11:06:59;;;;;;;;;;;;;;;;;;5119435;28;20037;-28
2024/03/11 11:09:27;;;;;;;;;;;;;;;;;;5119237;28;19908;-28
2024/03/11 11:11:53;;;;;;;;;;;;;;;;;;5119320;28;19915;-30
2024/03/11 11:14:19;;;;;;;;;;;;;;;;;;5119303;28;20335;-28
2024/03/11 11:16:45;;;;;;;;;;;;;;;;;;5118956;28;19911;-28
2024/03/11 11:19:11;;;;;;;;;;;;;;;;;;5119708;28;19908;-29
2024/03/11 11:21:39;;;;;;;;;;;;;;;;;;5119175;28;19945;-28
2024/03/11 11:24:05;;;;;;;;;;;;;;;;;;5119196;28;19908;-28
2024/03/11 11:26:31;;;;;;;;;;;;;;;;;;5118545;28;19907;-32
2024/03/11 11:28:58;;;;;;;;;;;;;;;;;;5118966;28;19908;-29
2024/03/11 11:31:27;;;;;;;;;;;;;;;;;;5119283;28;19907;-28
2024/03/11 11:33:53;;;;;;;;;;;;;;;;;;5118694;28;20366;-29
2024/03/11 11:36:20;;;;;;;;;;;;;;;;;;5118832;28;20298;-29
2024/03/11 11:38:46;;;;;;;;;;;;;;;;;;5118859;28;19918;-30
2024/03/11 11:41:12;;;;;;;;;;;;;;;;;;5119062;28;19998;-29
2024/03/11 11:43:38;;;;;;;;;;;;;;;;;;5118787;28;19908;-28
2024/03/11 11:46:04;;;;;;;;;;;;;;;;;;5118506;28;19915;-29
2024/03/11 11:48:31;;;;;;;;;;;;;;;;;;5118743;28;19957;-28
2024/03/11 11:50:59;;;;;;;;;;;;;;;;;;5118696;28;19915;-29
2024/03/11 11:53:26;;;;;;;;;;;;;;;;;;5118629;28;19907;-28
2024/03/11 11:55:52;;;;;;;;;;;;;;;;;;5118601;28;19938;-28
2024/03/11 11:58:18;;;;;;;;;;;;;;;;;;5118376;28;19912;-28
2024/03/11 12:00:44;;;;;;;;;;;;;;;;;;5118701;28;19914;-28
2024/03/11 12:03:10;;;;;;;;;;;;;;;;;;5118556;28;19908;-29
2024/03/11 12:05:36;;;;;;;;;;;;;;;;;;5118121;28;19995;-28
2024/03/11 12:08:02;;;;;;;;;;;;;;;;;;5118339;28;19907;-28
2024/03/11 12:10:28;;;;;;;;;;;;;;;;;;5118668;28;20266;-28
2024/03/11 12:12:54;;;;;;;;;;;;;;;;;;5118097;28;20386;-28
2024/03/11 12:15:21;;;;;;;;;;;;;;;;;;5118268;28;19908;-28
2024/03/11 12:17:47;;;;;;;;;;;;;;;;;;5118340;28;19934;-30
2024/03/11 12:20:46;;;;;;;;;;;;;;;;;;5118650;28;20312;-29
2024/03/11 12:23:05;;;;;;;;;;;;;;;;;;5114995;28;19908;-28
2024/03/11 12:25:36;;;;;;;;;;;;;;;;;;5118193;28;19930;-30
2024/03/11 12:28:07;;;;;;;;;;;;;;;;;;5118182;28;19908;-29
2024/03/11 12:30:36;;;;;;;;;;;;;;;;;;5118093;28;19908;-29
2024/03/11 12:33:04;;;;;;;;;;;;;;;;;;5117993;28;19908;-28
2024/03/11 12:35:30;;;;;;;;;;;;;;;;;;5118278;28;19908;-29
2024/03/11 12:37:58;;;;;;;;;;;;;;;;;;5118173;28;19935;-29
2024/03/11 12:40:24;;;;;;;;;;;;;;;;;;5122178;28;19908;-28
2024/03/11 12:42:49;;;;;;;;;;;;;;;;;;5122016;28;19925;-28
2024/03/11 12:45:15;;;;;;;;;;;;;;;;;;5122260;28;19915;-28
2024/03/11 12:47:41;;;;;;;;;;;;;;;;;;5121669;28;20556;-30
2024/03/11 12:50:11;;;;;;;;;;;;;;;;;;5122072;28;20319;-28
2024/03/11 12:52:37;;;;;;;;;;;;;;;;;;5121803;28;19904;-29
2024/03/11 12:55:03;;;;;;;;;;;;;;;;;;5122211;28;20221;-29
2024/03/11 12:57:30;;;;;;;;;;;;;;;;;;5121645;28;19911;-30
2024/03/11 12:59:56;;;;;;;;;;;;;;;;;;5121868;28;20004;-28
2024/03/11 13:02:22;;;;;;;;;;;;;;;;;;5122044;28;19903;-28
2024/03/11 13:04:54;;;;;;;;;;;;;;;;;;5121168;28;19920;-30
2024/03/11 13:07:20;;;;;;;;;;;;;;;;;;5121689;28;19904;-29
2024/03/11 13:09:46;;;;;;;;;;;;;;;;;;5121578;28;20361;-28
2024/03/11 13:12:12;;;;;;;;;;;;;;;;;;5121446;28;19982;-28
2024/03/11 13:14:40;;;;;;;;;;;;;;;;;;5121627;28;19930;-29
2024/03/11 13:17:09;;;;;;;;;;;;;;;;;;5121354;28;19911;-29
2024/03/11 13:19:35;;;;;;;;;;;;;;;;;;5121056;28;20431;-28
2024/03/11 13:22:17;;;;;;;;;;;;;;;;;;5121240;28;19907;-28
2024/03/11 13:24:44;;;;;;;;;;;;;;;;;;5121351;28;19914;-28
2024/03/11 13:27:11;;;;;;;;;;;;;;;;;;5121187;28;19990;-29
2024/03/11 13:29:37;;;;;;;;;;;;;;;;;;5121070;28;19911;-28
2024/03/11 13:32:07;;;;;;;;;;;;;;;;;;5120833;28;19968;-28
2024/03/11 13:34:33;;;;;;;;;;;;;;;;;;5121259;28;19908;-28
2024/03/11 13:36:59;;;;;;;;;;;;;;;;;;5120705;28;19951;-28
2024/03/11 13:39:36;;;;;;;;;;;;;;;;;;5120943;28;19908;-28
2024/03/11 13:42:02;;;;;;;;;;;;;;;;;;5120694;28;19908;-28
2024/03/11 13:44:28;;;;;;;;;;;;;;;;;;5120895;28;19931;-28
2024/03/11 13:46:54;;;;;;;;;;;;;;;;;;5120788;28;19908;-28
2024/03/11 13:49:22;;;;;;;;;;;;;;;;;;5120396;28;19907;-28
2024/03/11 13:51:49;;;;;;;;;;;;;;;;;;5120593;28;19915;-28
2024/03/11 13:54:15;;;;;;;;;;;;;;;;;;5120419;28;19907;-29
2024/03/11 13:56:41;;;;;;;;;;;;;;;;;;5120892;28;20000;-28
2024/03/11 13:59:08;;;;;;;;;;;;;;;;;;5120860;28;19946;-28
2024/03/11 14:01:34;;;;;;;;;;;;;;;;;;5120462;28;19903;-31
2024/03/11 14:04:00;;;;;;;;;;;;;;;;;;5120912;28;19968;-29
2024/03/11 14:06:27;;;;;;;;;;;;;;;;;;5120043;28;19924;-30
2024/03/11 14:08:53;;;;;;;;;;;;;;;;;;5120363;28;19904;-29
2024/03/11 14:11:19;;;;;;;;;;;;;;;;;;5120781;28;19960;-28
2024/03/11 14:13:46;;;;;;;;;;;;;;;;;;5120119;28;19904;-28
2024/03/11 14:16:12;;;;;;;;;;;;;;;;;;5119797;28;19929;-30
2024/03/11 14:18:42;;;;;;;;;;;;;;;;;;5120571;28;20358;-29
2024/03/11 14:21:08;;;;;;;;;;;;;;;;;;5120508;28;19908;-32
2024/03/11 14:23:34;;;;;;;;;;;;;;;;;;5120167;28;19904;-29
2024/03/11 14:26:01;;;;;;;;;;;;;;;;;;5120060;28;19955;-29
2024/03/11 14:28:28;;;;;;;;;;;;;;;;;;5119461;28;19904;-29
2024/03/11 14:30:56;;;;;;;;;;;;;;;;;;5120009;28;19929;-28
2024/03/11 14:33:22;;;;;;;;;;;;;;;;;;5120217;28;19908;-29
2024/03/11 14:35:48;;;;;;;;;;;;;;;;;;5119993;28;19915;-29
2024/03/11 14:38:14;;;;;;;;;;;;;;;;;;5119489;28;19912;-29
2024/03/11 14:40:44;;;;;;;;;;;;;;;;;;5119830;28;19908;-28
2024/03/11 14:43:10;;;;;;;;;;;;;;;;;;5119643;28;19904;-28
2024/03/11 14:45:38;;;;;;;;;;;;;;;;;;5120130;28;20381;-27
2024/03/11 14:48:09;;;;;;;;;;;;;;;;;;5120412;28;19991;-28
2024/03/11 14:50:36;;;;;;;;;;;;;;;;;;5119346;28;19915;-29
2024/03/11 14:53:06;;;;;;;;;;;;;;;;;;5119925;28;19947;-28
2024/03/11 14:55:41;;;;;;;;;;;;;;;;;;5119622;28;19908;-30
2024/03/11 14:58:07;;;;;;;;;;;;;;;;;;5119393;28;19911;-28
2024/03/11 15:00:35;;;;;;;;;;;;;;;;;;5119067;28;19911;-30
2024/03/11 15:03:02;;;;;;;;;;;;;;;;;;5119126;28;20049;-28
2024/03/11 15:05:29;;;;;;;;;;;;;;;;;;5119333;28;19923;-30
2024/03/11 15:07:58;;;;;;;;;;;;;;;;;;5119158;28;19914;-28
2024/03/11 15:10:27;;;;;;;;;;;;;;;;;;5119370;28;19939;-29
2024/03/11 15:12:56;;;;;;;;;;;;;;;;;;5119644;28;19911;-28
2024/03/11 15:15:22;;;;;;;;;;;;;;;;;;5119121;28;20007;-28
2024/03/11 15:17:51;;;;;;;;;;;;;;;;;;5119364;28;20367;-29
2024/03/11 15:20:17;;;;;;;;;;;;;;;;;;5119136;28;19915;-28
2024/03/11 15:22:43;;;;;;;;;;;;;;;;;;5118577;28;19907;-29
2024/03/11 15:25:09;;;;;;;;;;;;;;;;;;5118959;28;19908;-29
2024/03/11 15:27:35;;;;;;;;;;;;;;;;;;5119083;28;19908;-28
2024/03/11 15:30:01;;;;;;;;;;;;;;;;;;5118852;28;19915;-29
2024/03/11 15:32:27;;;;;;;;;;;;;;;;;;5118949;28;19912;-28
2024/03/11 15:34:53;;;;;;;;;;;;;;;;;;5098425;28;19995;-29
2024/03/11 15:37:19;;;;;;;;;;;;;;;;;;5116754;28;19919;-29
2024/03/11 15:39:45;;;;;;;;;;;;;;;;;;5116966;28;19908;-28
2024/03/11 15:42:11;;;;;;;;;;;;;;;;;;5099262;28;19911;-31
2024/03/11 15:44:37;;;;;;;;;;;;;;;;;;5117792;28;19908;-31
2024/03/11 15:47:03;;;;;;;;;;;;;;;;;;5118862;28;19912;-29
2024/03/11 15:49:32;;;;;;;;;;;;;;;;;;5118693;28;19998;-28
2024/03/11 15:51:58;;;;;;;;;;;;;;;;;;5118268;28;20305;-28
2024/03/11 15:54:24;;;;;;;;;;;;;;;;;;5118552;28;19908;-29
2024/03/11 15:56:50;;;;;;;;;;;;;;;;;;5118598;28;19919;-28
2024/03/11 15:59:17;;;;;;;;;;;;;;;;;;5118638;28;20371;-28
2024/03/11 16:01:47;;;;;;;;;;;;;;;;;;5118178;28;19915;-28
2024/03/11 16:04:13;;;;;;;;;;;;;;;;;;5118358;28;19950;-29
2024/03/11 16:06:40;;;;;;;;;;;;;;;;;;5118663;28;19912;-29
2024/03/11 16:09:10;;;;;;;;;;;;;;;;;;5118451;28;19908;-28
2024/03/11 16:11:36;;;;;;;;;;;;;;;;;;5100014;28;19923;-29
2024/03/11 16:14:02;;;;;;;;;;;;;;;;;;5121953;28;20363;-29
2024/03/11 16:16:28;;;;;;;;;;;;;;;;;;5122506;28;19915;-28
2024/03/11 16:18:56;;;;;;;;;;;;;;;;;;5122834;28;19911;-28
2024/03/11 16:21:22;;;;;;;;;;;;;;;;;;5122702;28;20006;-28
2024/03/11 16:23:47;;;;;;;;;;;;;;;;;;5122431;28;19908;-29
2024/03/11 16:26:14;;;;;;;;;;;;;;;;;;5122096;28;20432;-28
2024/03/11 16:28:42;;;;;;;;;;;;;;;;;;5122221;28;19943;-30
2024/03/11 16:31:09;;;;;;;;;;;;;;;;;;5122291;28;19915;-28
2024/03/11 16:33:36;;;;;;;;;;;;;;;;;;5122187;28;19907;-30
2024/03/11 16:36:03;;;;;;;;;;;;;;;;;;5122420;28;19908;-29
2024/03/11 16:38:30;;;;;;;;;;;;;;;;;;5121992;28;19912;-29
2024/03/11 16:40:56;;;;;;;;;;;;;;;;;;5122236;28;19957;-29
2024/03/11 16:43:22;;;;;;;;;;;;;;;;;;5122203;28;19911;-29